createdAt,value
2023-02-23T06:53:55.951Z,99560.78
2023-02-23T06:59:28.569Z,99567.00
2023-02-23T07:04:30.469Z,99571.88
2023-02-23T07:09:32.490Z,99580.94
2023-02-23T07:14:48.249Z,99576.41
2023-02-23T07:19:50.148Z,99585.13
2023-02-23T07:24:52.936Z,99595.25
2023-02-23T07:29:54.709Z,99593.50
2023-02-23T07:34:56.446Z,99597.34
2023-02-23T07:40:04.682Z,99602.03
2023-02-23T07:45:07.194Z,99604.50
2023-02-23T07:50:10.400Z,99605.81
2023-02-23T07:55:13.040Z,99606.97
2023-02-23T08:00:15.066Z,99616.41
2023-02-23T08:05:17.007Z,99612.53
2023-02-23T08:10:18.848Z,99612.09
2023-02-23T08:15:20.598Z,99610.47
2023-02-23T08:20:22.273Z,99610.41
2023-02-23T08:25:24.299Z,99614.25
2023-02-23T08:30:26.086Z,99608.59
2023-02-23T08:35:29.982Z,99610.25
2023-02-23T08:40:31.661Z,99619.13
2023-02-23T08:45:33.400Z,99622.41
2023-02-23T08:50:35.174Z,99628.63
2023-02-23T08:55:38.566Z,99616.28
2023-02-23T09:00:40.467Z,99623.56
2023-02-23T09:05:43.451Z,99627.97
2023-02-23T09:10:45.250Z,99628.88
2023-02-23T09:15:48.019Z,99632.44
2023-02-23T09:20:50.352Z,99634.81
2023-02-23T09:25:52.050Z,99640.38
2023-02-23T09:30:53.717Z,99641.94
2023-02-23T09:35:55.465Z,99647.16
2023-02-23T09:40:57.169Z,99646.06
2023-02-23T09:46:23.791Z,99649.63
2023-02-23T09:51:27.357Z,99653.97
2023-02-23T09:56:45.369Z,99654.66
2023-02-23T10:01:50.142Z,99659.06
2023-02-23T10:07:14.773Z,99655.75
2023-02-23T10:12:44.471Z,99667.41
2023-02-23T10:18:04.159Z,99663.81
2023-02-23T10:23:15.583Z,99672.25
2023-02-23T10:28:21.875Z,99673.81
2023-02-23T10:33:30.013Z,99673.59
2023-02-23T10:38:31.762Z,99676.03
2023-02-23T10:43:33.766Z,99681.28
2023-02-23T10:48:43.237Z,99684.66
2023-02-23T10:53:45.068Z,99688.63
2023-02-23T10:58:58.606Z,99683.91
2023-02-23T11:04:19.159Z,99688.88
2023-02-23T11:09:45.081Z,99686.78
2023-02-23T11:14:53.717Z,99687.13
2023-02-23T11:20:25.790Z,99689.59
2023-02-23T11:25:32.467Z,99690.88
2023-02-23T11:30:38.193Z,99686.25
2023-02-23T11:35:40.003Z,99686.59
2023-02-23T11:40:41.686Z,99681.38
2023-02-23T11:45:50.352Z,99681.41
2023-02-23T11:50:53.584Z,99676.38
2023-02-23T11:55:59.278Z,99674.72
2023-02-23T12:01:12.122Z,99680.69
2023-02-23T12:06:35.879Z,99677.72
2023-02-23T12:11:42.577Z,99680.69
2023-02-23T12:16:51.159Z,99672.94
2023-02-23T12:22:27.036Z,99669.03
2023-02-23T12:27:38.298Z,99672.63
2023-02-23T12:33:06.946Z,99667.75
2023-02-23T12:38:33.575Z,99660.88
2023-02-23T12:43:49.502Z,99665.94
2023-02-23T12:49:03.295Z,99658.31
2023-02-23T12:54:11.613Z,99643.53
2023-02-23T12:59:19.382Z,99646.88
2023-02-23T13:05:04.195Z,99633.03
2023-02-23T13:10:32.061Z,99634.16
2023-02-23T13:16:05.030Z,99629.38
2023-02-23T13:21:31.760Z,99618.16
2023-02-23T13:26:46.386Z,99613.91
2023-02-23T13:31:48.517Z,99619.16
2023-02-23T13:36:51.456Z,99623.47
2023-02-23T13:42:22.020Z,99624.22
2023-02-23T13:47:47.199Z,99624.34
2023-02-23T13:52:49.736Z,99625.34
2023-02-23T13:57:52.943Z,99632.09
2023-02-23T14:02:54.814Z,99630.50
2023-02-23T14:08:04.826Z,99638.66
2023-02-23T14:13:25.734Z,99636.63
2023-02-23T14:18:31.125Z,99627.69
2023-02-23T14:23:54.093Z,99632.09
2023-02-23T14:29:28.935Z,99639.63
2023-02-23T14:34:49.206Z,99646.81
2023-02-23T14:39:55.159Z,99646.69
2023-02-23T14:45:27.341Z,99646.50
2023-02-23T14:50:35.397Z,99649.22
2023-02-23T14:55:43.446Z,99648.78
2023-02-23T15:00:45.194Z,99657.28
2023-02-23T15:06:07.089Z,99642.91
2023-02-23T15:11:14.530Z,99656.72
2023-02-23T15:16:24.328Z,99656.19
2023-02-23T15:21:26.222Z,99652.63
2023-02-23T15:26:37.431Z,99653.28
2023-02-23T15:31:41.278Z,99656.69
2023-02-23T15:36:47.177Z,99660.78
2023-02-23T15:41:49.986Z,99661.59
2023-02-23T15:46:55.910Z,99661.94
2023-02-23T15:52:01.572Z,99669.38
2023-02-23T15:57:14.270Z,99676.44
2023-02-23T16:02:23.884Z,99677.38
2023-02-23T16:07:35.576Z,99678.22
2023-02-23T16:12:39.497Z,99674.72
2023-02-23T16:17:47.361Z,99680.97
2023-02-23T16:22:53.669Z,99681.88
2023-02-23T16:28:02.935Z,99692.19
2023-02-23T16:33:21.864Z,99678.94
2023-02-23T16:38:39.367Z,99682.06
2023-02-23T16:43:41.139Z,99674.88
2023-02-23T16:48:42.811Z,99679.44
2023-02-23T16:53:44.997Z,99678.50
2023-02-23T16:58:51.083Z,99686.53
2023-02-23T17:03:54.641Z,99694.75
2023-02-23T17:09:00.707Z,99696.16
2023-02-23T17:14:02.468Z,99699.72
2023-02-23T17:19:07.285Z,99699.72
2023-02-23T17:24:10.986Z,99708.09
2023-02-23T17:29:14.715Z,99705.38
2023-02-23T17:34:16.746Z,99711.34
2023-02-23T17:39:18.803Z,99714.16
2023-02-23T17:44:20.668Z,99717.97
2023-02-23T17:49:22.380Z,99710.41
2023-02-23T17:54:24.082Z,99707.41
2023-02-23T17:59:26.191Z,99706.66
2023-02-23T18:04:28.369Z,99704.03
2023-02-23T18:09:30.502Z,99705.13
2023-02-23T18:14:33.173Z,99716.63
2023-02-23T18:19:36.166Z,99722.63
2023-02-23T18:24:38.627Z,99720.34
2023-02-23T18:29:40.339Z,99717.75
2023-02-23T18:34:42.044Z,99717.28
2023-02-23T18:39:43.698Z,99719.75
2023-02-23T18:44:45.554Z,99712.31
2023-02-23T18:49:47.728Z,99713.34
2023-02-23T18:54:49.456Z,99716.69
2023-02-23T18:59:51.233Z,99708.50
2023-02-23T19:04:53.052Z,99716.13
2023-02-23T19:09:54.895Z,99710.09
2023-02-23T19:14:57.854Z,99710.38
2023-02-23T19:20:00.711Z,99717.94
2023-02-23T19:25:02.561Z,99710.38
2023-02-23T19:30:10.250Z,99711.41
2023-02-23T19:35:16.231Z,99703.31
2023-02-23T19:40:23.155Z,99711.59
2023-02-23T19:45:26.084Z,99715.59
2023-02-23T19:50:28.025Z,99715.94
2023-02-23T19:55:29.752Z,99718.97
2023-02-23T20:00:31.491Z,99731.94
2023-02-23T20:05:42.892Z,99734.59
2023-02-23T20:10:45.396Z,99731.75
2023-02-23T20:15:47.148Z,99735.63
2023-02-23T20:27:14.571Z,99748.00
2023-02-23T20:32:17.450Z,99744.72
2023-02-23T20:37:19.777Z,99745.38
2023-02-23T20:42:21.478Z,99749.16
2023-02-23T20:47:24.034Z,99752.78
2023-02-23T20:52:25.756Z,99751.69
2023-02-23T20:57:27.412Z,99756.38
2023-02-23T21:02:29.684Z,99757.75
2023-02-23T21:07:31.679Z,99755.97
2023-02-23T21:12:34.232Z,99749.66
2023-02-23T21:17:38.608Z,99751.00
2023-02-23T21:22:40.932Z,99751.78
2023-02-23T21:27:45.037Z,99755.47
2023-02-23T21:32:48.481Z,99753.09
2023-02-23T21:37:51.274Z,99745.94
2023-02-23T21:42:53.049Z,99747.38
2023-02-23T21:47:55.079Z,99739.13
2023-02-23T21:52:58.314Z,99738.03
2023-02-23T21:58:00.087Z,99734.69
2023-02-23T22:03:03.530Z,99736.72
2023-02-23T22:08:05.926Z,99727.53
2023-02-23T22:13:08.414Z,99731.41
2023-02-23T22:18:14.982Z,99723.50
2023-02-23T22:23:17.184Z,99719.81
2023-02-23T22:28:19.058Z,99721.31
2023-02-23T22:33:23.199Z,99721.50
2023-02-23T22:38:25.430Z,99721.38
2023-02-23T22:43:28.149Z,99722.63
2023-02-23T22:48:29.926Z,99721.47
2023-02-23T22:53:31.658Z,99716.78
2023-02-23T22:58:33.392Z,99710.47
2023-02-23T23:03:38.279Z,99705.59
2023-02-23T23:08:41.856Z,99697.16
2023-02-23T23:13:46.604Z,99690.88
2023-02-23T23:18:56.582Z,99681.38
2023-02-23T23:24:01.026Z,99683.94
2023-02-23T23:29:07.546Z,99687.84
2023-02-23T23:34:10.826Z,99681.81
2023-02-23T23:39:13.302Z,99675.00
2023-02-23T23:44:20.824Z,99670.03
2023-02-23T23:49:25.687Z,99650.38
2023-02-23T23:54:32.710Z,99653.72
2023-02-23T23:59:35.438Z,99649.03
